North Pole, Alaska
Current Conditions -  °F | °C
As of 3:28 AM on Saturday 25 Oct 2014 (Local Time) from PAEI Reporting Station
Freezing Drizzle Freezing Drizzle  
Wind Chill: 23°   Ceiling: 900
Heat Index: 23°   Visibility: 4mi
Dew Point: 21°   Wind: 2mph
Humidity: 93%   Direction: 150°SSE
Pressure: 29.99"   Gusts: NA
Location:  64.75°N, 147.35°W
Report Text: PAEI 251128Z AUTO 15002KT 4SM R32/4500FT -FZDZ BR OVC009 M05/M06 A2999 RMK AO2 $
Loading
Personal Weather Stations






























Interactive Weather Map
Tropical Storm Tracking
New forecast layout! Learn more

10-Day Weather Forecast

Advertisements
Track Severe Weather on mobile